Newtown, Connecticut
Current Conditions -  °F | °C
As of 6:53 AM on Monday 22 Dec 2014 (Local Time) from KDXR Reporting Station
Haze Haze  
Wind Chill: -2°   Ceiling: 800
Heat Index:   Visibility: 6mi
Dew Point: -2°   Wind: 5mph
Humidity: 85%   Direction: 60°ENE
Pressure: 30.32"   Gusts: NA
Location:  41.41°N, 73.3°W
Report Text: KDXR 221153Z 06004KT 6SM BR BKN008 OVC021 01/M02 A3032 RMK AO2 CIG 005V010 SLP272 60000 T00061017 10011 20006 57001
Loading
Personal Weather Stations






























Interactive Weather Map New forecast layout! Learn more

10-Day Weather Forecast

Advertisements
Track Severe Weather on mobile